Mamoudzou, Yemen
Current Conditions -  °F | °C
As of 3:00 PM on Friday 24 Oct 2014 (Local Time) from FMCZ Reporting Station
Few Clouds Few Clouds  
Wind Chill: 88°   Ceiling: Unl
Heat Index: 94°   Visibility: 6mi
Dew Point: 72°   Wind: 9mph
Humidity: 58%   Direction: 70°ENE
Pressure: 29.91"   Gusts: NA
Location:  12.8°S, 45.23°E
Report Text: FMCZ 241200Z 07008KT 9999 FEW026 31/22 Q1013 NOSIG
Loading
Personal Weather Stations






























Interactive Weather Map New forecast layout! Learn more

10-Day Weather Forecast

Advertisements
Track Severe Weather on mobile